Aldar, Mongolia
Current Conditions -  °F | °C
As of 4:30 AM on Saturday 29 Nov 2014 (Local Time) from UIII Reporting Station
Clear Clear  
Wind Chill: -7°   Ceiling: Unl
Heat Index:   Visibility: 6mi
Dew Point:   Wind: 7mph
Humidity: 85%   Direction: 340°NNW
Pressure: 30.09"   Gusts: NA
Location:  47.7°N, 96.6°E
Report Text: UIII 282030Z 34003MPS CAVOK M15/M17 Q1019 NOSIG RMK QFE720/096030CLRD60
Loading
Personal Weather Stations






























Interactive Weather Map New forecast layout! Learn more

10-Day Weather Forecast

Advertisements
Track Severe Weather on mobile